createdAt,value
2019-03-09T00:01:59.229Z,87.16
2019-03-09T00:04:30.600Z,87.21
2019-03-09T00:07:01.957Z,87.04
2019-03-09T00:09:33.337Z,87.08
2019-03-09T00:12:04.708Z,86.80
2019-03-09T00:14:36.008Z,86.44
2019-03-09T00:17:07.405Z,86.21
2019-03-09T00:19:38.674Z,85.86
2019-03-09T00:22:10.037Z,85.05
2019-03-09T00:24:55.203Z,83.85
2019-03-09T00:27:35.516Z,84.38
2019-03-09T00:30:22.438Z,85.46
2019-03-09T00:32:53.829Z,86.44
2019-03-09T00:35:25.090Z,87.32
2019-03-09T00:37:56.558Z,88.63
2019-03-09T00:40:27.956Z,89.12
2019-03-09T00:42:59.328Z,89.64
2019-03-09T00:45:30.661Z,90.16
2019-03-09T00:48:01.944Z,90.35
2019-03-09T00:50:33.753Z,90.32
2019-03-09T00:53:05.012Z,90.19
2019-03-09T00:55:36.330Z,90.04
2019-03-09T00:58:07.627Z,89.84
2019-03-09T01:00:39.106Z,89.60
2019-03-09T01:03:10.388Z,89.48
2019-03-09T01:05:41.793Z,89.42
2019-03-09T01:08:13.049Z,89.33
2019-03-09T01:10:44.468Z,89.32
2019-03-09T01:13:15.728Z,89.25
2019-03-09T01:15:47.092Z,89.35
2019-03-09T01:18:18.347Z,89.45
2019-03-09T01:20:49.925Z,89.29
2019-03-09T01:23:21.255Z,89.34
2019-03-09T01:25:52.632Z,89.36
2019-03-09T01:28:23.883Z,89.52
2019-03-09T01:30:55.303Z,89.55
2019-03-09T01:33:26.566Z,89.54
2019-03-09T01:35:57.959Z,89.55
2019-03-09T01:38:30.106Z,89.57
2019-03-09T01:41:01.534Z,89.67
2019-03-09T01:43:32.835Z,89.79
2019-03-09T01:46:04.252Z,90.01
2019-03-09T01:48:35.632Z,90.06
2019-03-09T01:51:07.040Z,90.50
2019-03-09T01:53:38.290Z,90.66
2019-03-09T01:56:09.555Z,90.64
2019-03-09T01:58:40.819Z,90.71
2019-03-09T02:01:12.230Z,90.86
2019-03-09T02:03:43.549Z,90.88
2019-03-09T02:06:14.890Z,90.93
2019-03-09T02:08:46.240Z,90.99
2019-03-09T02:11:17.720Z,91.05
2019-03-09T02:13:49.068Z,91.03
2019-03-09T02:16:20.488Z,90.91
2019-03-09T02:18:53.435Z,91.01
2019-03-09T02:21:24.868Z,90.97
2019-03-09T02:23:56.183Z,91.02
2019-03-09T02:26:27.679Z,91.14
2019-03-09T02:29:00.964Z,90.99
2019-03-09T02:31:32.015Z,90.98
2019-03-09T02:34:03.319Z,91.04
2019-03-09T02:36:34.644Z,91.01
2019-03-09T02:39:30.150Z,90.97
2019-03-09T02:42:01.397Z,90.93
2019-03-09T02:44:32.673Z,91.02
2019-03-09T02:47:04.115Z,90.97
2019-03-09T02:49:35.507Z,90.90
2019-03-09T02:52:06.778Z,90.73
2019-03-09T02:54:38.047Z,90.57
2019-03-09T02:57:09.517Z,90.77
2019-03-09T02:59:40.876Z,90.85
2019-03-09T03:02:31.372Z,91.03
2019-03-09T03:05:02.705Z,90.87
2019-03-09T03:07:34.085Z,91.71
2019-03-09T03:10:06.478Z,92.52
2019-03-09T03:12:37.808Z,93.06
2019-03-09T03:15:09.856Z,93.62
2019-03-09T03:17:41.493Z,93.62
2019-03-09T03:20:12.863Z,93.56
2019-03-09T03:22:44.269Z,93.44
2019-03-09T03:25:15.593Z,93.41
2019-03-09T03:27:48.983Z,93.46
2019-03-09T03:30:20.315Z,93.53
2019-03-09T03:32:53.436Z,93.55
2019-03-09T03:35:24.780Z,93.71
2019-03-09T03:37:56.089Z,93.97
2019-03-09T03:40:27.466Z,94.08
2019-03-09T03:42:58.953Z,94.23
2019-03-09T03:45:30.268Z,94.21
2019-03-09T03:48:01.533Z,94.46
2019-03-09T03:50:32.816Z,94.39
2019-03-09T03:53:04.225Z,94.48
2019-03-09T03:55:35.489Z,94.51
2019-03-09T03:58:06.898Z,94.71
2019-03-09T04:00:38.305Z,94.87
2019-03-09T04:03:09.781Z,95.00
2019-03-09T04:05:41.203Z,95.11
2019-03-09T04:08:12.898Z,95.40
2019-03-09T04:10:44.126Z,95.51
2019-03-09T04:13:15.493Z,95.28
2019-03-09T04:15:46.825Z,95.14
2019-03-09T04:18:19.733Z,95.06
2019-03-09T04:20:51.099Z,95.37
2019-03-09T04:23:22.476Z,95.83
2019-03-09T04:25:53.754Z,95.95
2019-03-09T04:28:25.141Z,95.82
2019-03-09T04:30:56.448Z,95.68
2019-03-09T04:33:31.891Z,95.66
2019-03-09T04:36:03.157Z,95.73
2019-03-09T04:38:34.563Z,95.60
2019-03-09T04:41:05.891Z,95.48
2019-03-09T04:43:37.200Z,95.53
2019-03-09T04:46:08.531Z,95.54
2019-03-09T04:48:39.821Z,95.85
2019-03-09T04:51:11.176Z,95.92
2019-03-09T04:53:42.453Z,96.11
2019-03-09T04:56:15.485Z,96.11
2019-03-09T04:58:47.774Z,96.49
2019-03-09T05:01:19.053Z,96.39
2019-03-09T05:04:11.857Z,96.21
2019-03-09T05:06:44.774Z,96.13
2019-03-09T05:09:30.043Z,96.16
2019-03-09T05:12:01.330Z,96.18
2019-03-09T05:14:32.587Z,96.08
2019-03-09T05:17:03.939Z,96.56
2019-03-09T05:19:35.263Z,96.71
2019-03-09T05:22:06.621Z,96.80
2019-03-09T05:24:38.053Z,96.80
2019-03-09T05:27:09.466Z,96.90
2019-03-09T05:29:40.965Z,96.75
2019-03-09T05:32:12.836Z,96.84
2019-03-09T05:34:44.933Z,97.39
2019-03-09T05:37:16.433Z,97.51
2019-03-09T05:39:47.818Z,97.54
2019-03-09T05:42:19.103Z,97.55
2019-03-09T05:44:51.291Z,97.51
2019-03-09T05:47:22.578Z,97.46
2019-03-09T05:49:53.921Z,97.48
2019-03-09T05:52:35.431Z,97.38
2019-03-09T05:55:16.299Z,97.49
2019-03-09T05:57:47.685Z,97.47
2019-03-09T06:00:19.141Z,97.44
2019-03-09T06:02:50.435Z,97.37
2019-03-09T06:05:33.175Z,97.60
2019-03-09T06:08:04.825Z,97.67
2019-03-09T06:10:36.205Z,97.66
2019-03-09T06:13:07.666Z,97.98
2019-03-09T06:15:39.786Z,98.59
2019-03-09T06:18:11.124Z,98.67
2019-03-09T06:20:42.480Z,99.02
2019-03-09T06:23:13.831Z,99.33
2019-03-09T06:25:45.244Z,99.45
2019-03-09T06:28:16.478Z,99.31
2019-03-09T06:30:47.743Z,98.92
2019-03-09T06:33:37.121Z,98.79
2019-03-09T06:36:51.029Z,98.77
2019-03-09T06:39:34.626Z,98.87
2019-03-09T06:42:35.095Z,98.76
2019-03-09T06:45:08.987Z,98.27
2019-03-09T06:47:40.457Z,97.97
2019-03-09T06:50:14.116Z,97.87
2019-03-09T06:52:45.364Z,97.55
2019-03-09T06:55:18.450Z,97.17
2019-03-09T06:57:49.710Z,96.77
2019-03-09T07:00:33.119Z,96.97
2019-03-09T07:03:04.764Z,96.86
2019-03-09T07:05:36.234Z,96.24
2019-03-09T07:08:07.521Z,95.85
2019-03-09T07:10:39.026Z,96.17
2019-03-09T07:13:10.455Z,95.96
2019-03-09T07:15:43.701Z,95.70
2019-03-09T07:18:17.399Z,95.31
2019-03-09T07:20:48.847Z,95.42
2019-03-09T07:23:20.240Z,94.89
2019-03-09T07:25:51.522Z,92.90
2019-03-09T07:28:22.805Z,91.57
2019-03-09T07:30:54.091Z,89.14
2019-03-09T07:33:25.475Z,87.95
2019-03-09T07:35:56.779Z,86.21
2019-03-09T07:38:28.282Z,84.81
2019-03-09T07:40:59.632Z,83.93
2019-03-09T07:43:31.014Z,83.39
2019-03-09T07:46:02.276Z,79.96
2019-03-09T07:48:35.648Z,78.77
2019-03-09T07:51:06.926Z,78.29
2019-03-09T07:53:38.308Z,75.78
2019-03-09T07:56:09.615Z,75.14
2019-03-09T07:58:40.890Z,75.85
2019-03-09T08:01:12.148Z,75.39
2019-03-09T08:03:43.553Z,75.17
2019-03-09T08:06:14.882Z,75.53
2019-03-09T08:08:46.188Z,75.03
2019-03-09T08:11:17.543Z,74.24
2019-03-09T08:13:48.855Z,74.49
2019-03-09T08:16:20.171Z,72.99
2019-03-09T08:18:52.882Z,72.77
2019-03-09T08:21:24.209Z,72.97
2019-03-09T08:23:56.555Z,73.87
2019-03-09T08:26:27.961Z,73.29
2019-03-09T08:28:59.268Z,72.66
2019-03-09T08:31:30.600Z,72.69
2019-03-09T08:34:01.896Z,72.53
2019-03-09T08:36:35.019Z,72.29
2019-03-09T08:39:07.637Z,71.16
2019-03-09T08:41:39.105Z,70.03
2019-03-09T08:44:10.615Z,70.36
2019-03-09T08:46:42.140Z,69.25
2019-03-09T08:49:13.963Z,68.25
2019-03-09T08:51:45.310Z,67.71
2019-03-09T08:54:16.742Z,67.00
2019-03-09T08:56:48.001Z,68.46
2019-03-09T08:59:19.491Z,67.11
2019-03-09T09:01:50.903Z,65.88
2019-03-09T09:04:22.211Z,65.88
2019-03-09T09:06:53.471Z,66.60
2019-03-09T09:09:25.049Z,65.87
2019-03-09T09:11:56.498Z,65.72
2019-03-09T09:14:27.760Z,65.26
2019-03-09T09:16:59.220Z,64.52
2019-03-09T09:19:30.977Z,63.12
2019-03-09T09:22:02.228Z,62.97
2019-03-09T09:24:33.645Z,63.59
2019-03-09T09:27:05.070Z,63.79
2019-03-09T09:29:36.470Z,62.65
2019-03-09T09:32:07.743Z,62.65
2019-03-09T09:34:39.393Z,63.34
2019-03-09T09:37:10.782Z,61.83
2019-03-09T09:39:42.778Z,63.06
2019-03-09T09:42:14.035Z,60.98
2019-03-09T09:44:45.418Z,61.27
2019-03-09T09:47:16.761Z,60.61
2019-03-09T09:49:48.111Z,59.88
2019-03-09T09:52:19.384Z,60.91
2019-03-09T09:54:50.714Z,60.67
2019-03-09T09:57:22.068Z,61.92
2019-03-09T09:59:53.441Z,61.62
2019-03-09T10:02:24.875Z,61.84
2019-03-09T10:04:56.174Z,62.57
2019-03-09T10:07:27.605Z,61.84
2019-03-09T10:09:59.045Z,61.94
2019-03-09T10:12:30.785Z,61.95
2019-03-09T10:15:02.333Z,61.63
2019-03-09T10:17:33.802Z,62.21
2019-03-09T10:20:05.899Z,64.17
2019-03-09T10:22:37.405Z,65.74
2019-03-09T10:25:09.826Z,65.49
2019-03-09T10:27:41.218Z,66.84
2019-03-09T10:30:15.475Z,68.61
2019-03-09T10:32:46.845Z,72.10
2019-03-09T10:35:18.158Z,73.04
2019-03-09T10:37:49.637Z,74.79
2019-03-09T10:40:21.686Z,74.55
2019-03-09T10:42:53.188Z,74.71
2019-03-09T10:45:24.535Z,75.09
2019-03-09T10:47:55.859Z,76.36
2019-03-09T10:50:27.259Z,77.73
2019-03-09T10:52:58.473Z,79.55
2019-03-09T10:55:31.526Z,80.68
2019-03-09T10:58:02.814Z,80.71
2019-03-09T11:00:34.762Z,81.62
2019-03-09T11:03:06.226Z,81.23
2019-03-09T11:05:37.879Z,81.23
2019-03-09T11:08:09.253Z,80.58
2019-03-09T11:10:40.622Z,80.89
2019-03-09T11:13:12.090Z,80.77
2019-03-09T11:15:43.525Z,81.27
2019-03-09T11:18:14.998Z,82.28
2019-03-09T11:20:46.291Z,82.24
2019-03-09T11:23:17.646Z,81.96
2019-03-09T11:25:50.728Z,82.16
2019-03-09T11:28:22.031Z,81.19
2019-03-09T11:30:53.362Z,82.75
2019-03-09T11:33:24.815Z,82.75
2019-03-09T11:35:56.398Z,82.18
2019-03-09T11:38:27.794Z,82.28
2019-03-09T11:41:00.865Z,81.75
2019-03-09T11:43:32.496Z,80.04
2019-03-09T11:46:03.876Z,78.74
2019-03-09T11:48:35.161Z,76.81
2019-03-09T11:51:07.280Z,74.77
2019-03-09T11:53:38.631Z,74.65
2019-03-09T11:56:09.924Z,74.12
2019-03-09T11:58:41.376Z,73.96
2019-03-09T12:01:12.847Z,74.13
2019-03-09T12:03:44.127Z,75.07
2019-03-09T12:06:15.613Z,74.96
2019-03-09T12:08:46.989Z,72.64
2019-03-09T12:11:18.509Z,73.13
2019-03-09T12:13:49.935Z,71.87
2019-03-09T12:16:21.332Z,70.49
2019-03-09T12:18:52.698Z,70.43
2019-03-09T12:21:24.032Z,69.95
2019-03-09T12:23:55.390Z,67.59
2019-03-09T12:26:30.415Z,65.59
2019-03-09T12:29:01.858Z,64.36
2019-03-09T12:31:33.326Z,63.79
2019-03-09T12:34:04.912Z,64.81
2019-03-09T12:36:36.295Z,63.82
2019-03-09T12:39:10.143Z,63.55
2019-03-09T12:41:41.849Z,63.55
2019-03-09T12:44:13.121Z,62.08
2019-03-09T12:46:44.481Z,61.03
2019-03-09T12:49:15.887Z,61.84
2019-03-09T12:51:47.214Z,62.02
2019-03-09T12:54:18.722Z,63.14
2019-03-09T12:56:50.335Z,60.78
2019-03-09T12:59:22.077Z,60.66
2019-03-09T13:01:53.401Z,60.79
2019-03-09T13:04:24.676Z,58.90
2019-03-09T13:06:56.031Z,60.53
2019-03-09T13:09:27.292Z,59.78
2019-03-09T13:11:58.843Z,58.38
2019-03-09T13:14:30.290Z,59.85
2019-03-09T13:17:01.585Z,59.10
2019-03-09T13:19:32.844Z,57.10
2019-03-09T13:22:04.377Z,58.15
2019-03-09T13:24:35.710Z,57.49
2019-03-09T13:27:07.087Z,57.57
2019-03-09T13:29:38.345Z,56.93
2019-03-09T13:32:09.851Z,56.80
2019-03-09T13:34:41.166Z,56.70
2019-03-09T13:37:12.897Z,56.77
2019-03-09T13:39:44.866Z,57.82
2019-03-09T13:42:16.526Z,58.04
2019-03-09T13:44:47.991Z,57.58
2019-03-09T13:47:19.284Z,56.90
2019-03-09T13:49:52.307Z,57.95
2019-03-09T13:52:23.842Z,56.09
2019-03-09T13:54:55.246Z,57.61
2019-03-09T13:57:26.624Z,57.60
2019-03-09T13:59:58.010Z,57.12
2019-03-09T14:02:29.501Z,57.45
2019-03-09T14:05:00.851Z,57.15
2019-03-09T14:07:32.219Z,57.45
2019-03-09T14:10:03.993Z,57.46
2019-03-09T14:12:35.345Z,57.30
2019-03-09T14:15:07.641Z,58.01
2019-03-09T14:17:39.059Z,58.17
2019-03-09T14:20:11.392Z,57.18
2019-03-09T14:22:42.768Z,57.18
2019-03-09T14:25:14.986Z,57.48
2019-03-09T14:27:46.338Z,56.30
2019-03-09T14:30:17.716Z,56.48
2019-03-09T14:32:49.201Z,55.78
2019-03-09T14:35:20.730Z,56.08
2019-03-09T14:37:52.253Z,56.88
2019-03-09T14:40:25.204Z,54.62
2019-03-09T14:42:56.653Z,55.34
2019-03-09T14:45:28.492Z,55.04
2019-03-09T14:47:59.876Z,55.07
2019-03-09T14:50:31.307Z,54.91
2019-03-09T14:53:02.594Z,55.55
2019-03-09T14:55:33.952Z,56.67
2019-03-09T14:58:05.886Z,57.36
2019-03-09T15:00:37.172Z,57.93
2019-03-09T15:03:08.769Z,57.69
2019-03-09T15:05:40.301Z,57.44
2019-03-09T15:08:12.021Z,58.35
2019-03-09T15:10:43.571Z,59.33
2019-03-09T15:13:16.671Z,57.37
2019-03-09T15:15:48.047Z,57.04
2019-03-09T15:18:19.361Z,57.68
2019-03-09T15:20:50.796Z,57.22
2019-03-09T15:23:22.137Z,58.63
2019-03-09T15:25:53.511Z,58.93
2019-03-09T15:28:24.956Z,58.59
2019-03-09T15:30:56.255Z,59.41
2019-03-09T15:33:27.738Z,59.63
2019-03-09T15:35:59.101Z,60.50
2019-03-09T15:38:31.021Z,60.60
2019-03-09T15:41:02.406Z,60.97
2019-03-09T15:43:34.128Z,61.35
2019-03-09T15:46:05.474Z,62.61
2019-03-09T15:48:36.960Z,62.15
2019-03-09T15:51:08.473Z,62.71
2019-03-09T15:53:39.833Z,62.58
2019-03-09T15:56:11.344Z,61.62
2019-03-09T15:58:42.790Z,62.21
2019-03-09T16:01:14.177Z,61.77
2019-03-09T16:03:45.528Z,61.74
2019-03-09T16:06:17.427Z,62.64
2019-03-09T16:08:48.876Z,63.04
2019-03-09T16:11:20.226Z,63.75
2019-03-09T16:13:51.581Z,65.22
2019-03-09T16:16:23.020Z,68.46
2019-03-09T16:18:54.919Z,69.63
2019-03-09T16:21:26.379Z,71.77
2019-03-09T16:23:57.696Z,71.85
2019-03-09T16:26:29.095Z,72.02
2019-03-09T16:29:00.453Z,72.71
2019-03-09T16:31:31.971Z,72.24
2019-03-09T16:34:03.371Z,73.64
2019-03-09T16:36:34.710Z,73.95
2019-03-09T16:39:06.743Z,73.31
2019-03-09T16:41:38.157Z,74.07
2019-03-09T16:44:09.680Z,75.04
2019-03-09T16:46:40.944Z,75.52
2019-03-09T16:49:12.428Z,76.64
2019-03-09T16:51:43.922Z,76.54
2019-03-09T16:54:15.191Z,78.47
2019-03-09T16:56:46.739Z,79.73
2019-03-09T16:59:18.196Z,80.00
2019-03-09T17:01:49.467Z,82.68
2019-03-09T17:04:20.900Z,82.68
2019-03-09T17:06:52.460Z,82.55
2019-03-09T17:09:23.903Z,83.42
2019-03-09T17:11:55.367Z,83.42
2019-03-09T17:14:26.862Z,85.08
2019-03-09T17:16:58.253Z,85.10
2019-03-09T17:19:29.944Z,86.08
2019-03-09T17:22:01.325Z,86.99
2019-03-09T17:24:32.777Z,86.80
2019-03-09T17:27:04.267Z,87.56
2019-03-09T17:29:35.802Z,87.85
2019-03-09T17:32:07.103Z,87.93
2019-03-09T17:34:38.644Z,88.25
2019-03-09T17:37:10.181Z,88.74
2019-03-09T17:39:41.502Z,88.92
2019-03-09T17:42:12.943Z,89.38
2019-03-09T17:44:44.437Z,91.41
2019-03-09T17:47:15.854Z,91.41
2019-03-09T17:49:48.341Z,92.15
2019-03-09T17:52:19.677Z,93.08
2019-03-09T17:54:51.039Z,94.88
2019-03-09T17:57:22.411Z,95.61
2019-03-09T17:59:53.907Z,96.14
2019-03-09T18:02:25.231Z,97.21
2019-03-09T18:04:56.934Z,97.60
2019-03-09T18:07:28.293Z,96.59
2019-03-09T18:09:59.732Z,97.29
2019-03-09T18:12:31.016Z,97.94
2019-03-09T18:15:02.409Z,98.40
2019-03-09T18:17:34.557Z,99.34
2019-03-09T18:20:06.094Z,100.00
2019-03-09T18:22:37.492Z,100.00
2019-03-09T18:25:09.014Z,100.00
2019-03-09T18:27:40.318Z,100.00
2019-03-09T18:30:12.539Z,100.00
2019-03-09T18:32:44.010Z,100.00
2019-03-09T18:35:15.362Z,100.00
2019-03-09T18:37:46.939Z,100.00
2019-03-09T18:40:18.293Z,100.00
2019-03-09T18:42:49.722Z,100.00
2019-03-09T18:45:21.074Z,100.00
2019-03-09T18:47:52.435Z,99.21
2019-03-09T18:50:24.842Z,99.24
2019-03-09T18:52:56.078Z,98.55
2019-03-09T18:55:27.404Z,98.66
2019-03-09T18:57:58.846Z,98.19
2019-03-09T19:00:30.103Z,97.41
2019-03-09T19:03:01.433Z,97.41
2019-03-09T19:05:32.706Z,98.09
2019-03-09T19:08:03.972Z,97.62
2019-03-09T19:10:35.367Z,97.35
2019-03-09T19:13:06.798Z,96.97
2019-03-09T19:15:38.071Z,96.79
2019-03-09T19:18:09.504Z,96.38
2019-03-09T19:20:40.841Z,96.39
2019-03-09T19:23:14.250Z,95.48
2019-03-09T19:25:45.636Z,95.05
2019-03-09T19:28:16.903Z,93.10
2019-03-09T19:30:48.172Z,92.65
2019-03-09T19:33:19.600Z,93.12
2019-03-09T19:35:51.114Z,90.45
2019-03-09T19:38:22.386Z,89.90
2019-03-09T19:40:53.869Z,89.75
2019-03-09T19:43:25.209Z,89.18
2019-03-09T19:45:56.495Z,89.26
2019-03-09T19:48:27.813Z,88.98
2019-03-09T19:50:59.292Z,86.99
2019-03-09T19:53:30.689Z,86.23
2019-03-09T19:56:02.216Z,86.50
2019-03-09T19:58:33.705Z,83.35
2019-03-09T20:01:07.681Z,83.16
2019-03-09T20:03:40.113Z,79.66
2019-03-09T20:06:11.689Z,79.14
2019-03-09T20:08:45.603Z,77.91
2019-03-09T20:11:17.194Z,77.06
2019-03-09T20:13:48.671Z,75.13
2019-03-09T20:16:20.165Z,74.10
2019-03-09T20:18:51.561Z,74.73
2019-03-09T20:21:23.155Z,72.64
2019-03-09T20:23:54.482Z,71.63
2019-03-09T20:26:27.617Z,72.10
2019-03-09T20:28:58.991Z,72.89
2019-03-09T20:31:30.491Z,72.48
2019-03-09T20:34:01.771Z,72.34
2019-03-09T20:36:33.118Z,72.71
2019-03-09T20:39:05.518Z,72.17
2019-03-09T20:41:37.178Z,71.44
2019-03-09T20:44:08.596Z,72.05
2019-03-09T20:46:42.111Z,72.05
2019-03-09T20:49:13.164Z,72.06
2019-03-09T20:51:44.938Z,72.33
2019-03-09T20:54:16.395Z,72.08
2019-03-09T20:56:48.015Z,71.82
2019-03-09T20:59:19.690Z,72.28
2019-03-09T21:01:51.020Z,72.96
2019-03-09T21:04:22.426Z,72.60
2019-03-09T21:06:53.805Z,72.96
2019-03-09T21:09:25.198Z,71.69
2019-03-09T21:11:56.521Z,72.67
2019-03-09T21:14:27.842Z,72.80
2019-03-09T21:16:59.890Z,72.39
2019-03-09T21:19:31.351Z,72.61
2019-03-09T21:22:03.069Z,72.19
2019-03-09T21:24:34.878Z,71.91
2019-03-09T21:27:06.172Z,71.66
2019-03-09T21:29:37.473Z,71.53
2019-03-09T21:32:08.918Z,71.23
2019-03-09T21:34:41.981Z,70.76
2019-03-09T21:37:14.010Z,71.59
2019-03-09T21:39:45.415Z,70.63
2019-03-09T21:42:16.781Z,69.87
2019-03-09T21:44:48.848Z,69.71
2019-03-09T21:47:20.461Z,69.90
2019-03-09T21:49:51.838Z,70.08
2019-03-09T21:52:23.422Z,69.27
2019-03-09T21:54:57.800Z,68.76
2019-03-09T21:57:29.363Z,68.37
2019-03-09T22:00:04.773Z,68.83
2019-03-09T22:02:36.126Z,69.93
2019-03-09T22:05:09.799Z,69.62
2019-03-09T22:07:41.332Z,68.43
2019-03-09T22:10:13.176Z,68.08
2019-03-09T22:12:44.817Z,68.48
2019-03-09T22:15:16.164Z,68.55
2019-03-09T22:17:47.478Z,67.79
2019-03-09T22:20:20.619Z,68.11
2019-03-09T22:22:53.475Z,68.27
2019-03-09T22:25:24.856Z,66.51
2019-03-09T22:27:57.124Z,66.58
2019-03-09T22:30:28.473Z,66.27
2019-03-09T22:32:59.785Z,66.17
2019-03-09T22:35:31.140Z,65.52
2019-03-09T22:38:02.695Z,65.75
2019-03-09T22:40:34.136Z,65.74
2019-03-09T22:43:05.589Z,65.82
2019-03-09T22:45:37.032Z,66.32
2019-03-09T22:48:08.367Z,66.01
2019-03-09T22:50:39.894Z,65.53
2019-03-09T22:53:11.568Z,65.89
2019-03-09T22:55:42.853Z,66.87
2019-03-09T22:58:14.184Z,66.44
2019-03-09T23:00:45.530Z,66.56
2019-03-09T23:03:16.982Z,65.91
2019-03-09T23:05:48.411Z,65.89
2019-03-09T23:08:19.962Z,66.78
2019-03-09T23:10:53.056Z,67.08
2019-03-09T23:13:24.600Z,66.38
2019-03-09T23:15:55.986Z,66.84
2019-03-09T23:18:27.401Z,67.79
2019-03-09T23:20:58.776Z,67.91
2019-03-09T23:23:30.221Z,66.79
2019-03-09T23:26:01.611Z,67.21
2019-03-09T23:28:46.359Z,66.11
2019-03-09T23:31:17.629Z,66.22
2019-03-09T23:33:49.202Z,65.18
2019-03-09T23:36:20.846Z,65.18
2019-03-09T23:38:52.201Z,65.56
2019-03-09T23:41:23.651Z,64.85
2019-03-09T23:43:55.116Z,65.01
2019-03-09T23:46:26.533Z,65.03
2019-03-09T23:48:57.796Z,65.60
2019-03-09T23:51:29.089Z,64.84
2019-03-09T23:54:01.354Z,64.84
2019-03-09T23:56:32.772Z,65.43
2019-03-09T23:59:04.217Z,65.39
